Time;durP1;ratioP1;P1;durP2;ratioP2;P2;SDS_P1;SDS_P2;PMS_P1;PMS_P2;Temp;Humidity;BMP_temperature;BMP_pressure;BME280_temperature;BME280_humidity;BME280_pressure;Samples;Min_cycle;Max_cycle;Signal;HPM_P1;HPM_P2
2022/06/12 00:00:25;;;;;;;2.38;0.40;;;20.10;59.40;;;;;;5114861;28;20035;-71
2022/06/12 00:02:51;;;;;;;;;;;20.10;59.40;;;;;;5114007;28;20047;-71
2022/06/12 00:05:18;;;;;;;2.58;0.52;;;20.10;59.60;;;;;;5113666;28;19916;-70
2022/06/12 00:07:44;;;;;;;1.70;0.40;;;20.10;59.50;;;;;;5114594;28;20553;-70
2022/06/12 00:10:11;;;;;;;1.50;0.45;;;20.10;59.50;;;;;;5113530;28;20122;-70
2022/06/12 00:12:38;;;;;;;1.30;0.40;;;20.10;59.50;;;;;;5113489;28;20043;-71
2022/06/12 00:15:06;;;;;;;1.88;0.50;;;20.00;59.40;;;;;;5113521;28;20399;-71
2022/06/12 00:17:31;;;;;;;1.65;0.50;;;20.10;59.40;;;;;;5114471;28;20039;-72
2022/06/12 00:19:57;;;;;;;2.67;0.47;;;20.10;59.50;;;;;;5113417;28;20039;-72
2022/06/12 00:22:23;;;;;;;2.65;0.55;;;20.00;59.40;;;;;;5114025;28;20498;-71
2022/06/12 00:24:49;;;;;;;1.77;0.40;;;20.00;59.40;;;;;;5114331;28;20055;-71
2022/06/12 00:27:15;;;;;;;3.80;0.88;;;20.00;59.40;;;;;;5112340;28;20054;-70
2022/06/12 00:29:42;;;;;;;1.45;0.40;;;20.00;59.40;;;;;;5112772;28;20399;-70
2022/06/12 00:32:13;;;;;;;1.83;0.47;;;20.00;59.40;;;;;;5113118;28;20388;-70
2022/06/12 00:34:43;;;;;;;2.85;0.38;;;20.00;59.40;;;;;;5112962;28;20039;-69
2022/06/12 00:37:11;;;;;;;1.85;0.50;;;20.00;59.40;;;;;;5114089;28;20037;-71
2022/06/12 00:39:37;;;;;;;1.55;0.73;;;19.90;59.40;;;;;;5112699;28;20148;-71
2022/06/12 00:42:05;;;;;;;1.77;0.40;;;19.90;59.40;;;;;;5112978;28;20499;-70
2022/06/12 00:44:37;;;;;;;2.88;0.30;;;19.90;59.40;;;;;;5113868;28;20093;-71
2022/06/12 00:47:07;;;;;;;1.98;0.40;;;19.90;59.40;;;;;;5111610;28;20050;-70
2022/06/12 00:49:45;;;;;;;3.33;0.40;;;19.90;59.40;;;;;;5113902;28;20490;-71
2022/06/12 00:55:24;;;;;;;2.30;0.73;;;19.90;59.50;;;;;;5130361;27;20350;-70
2022/06/12 00:57:55;;;;;;;1.23;0.40;;;19.90;59.40;;;;;;5130265;27;20045;-71
2022/06/12 01:00:22;;;;;;;1.20;0.35;;;19.90;59.40;;;;;;5129143;28;20031;-70
2022/06/12 01:02:52;;;;;;;2.78;0.70;;;19.90;59.40;;;;;;5129059;28;20105;-71
2022/06/12 01:08:08;;;;;;;1.67;0.50;;;19.80;59.40;;;;;;5128529;28;20764;-72
2022/06/12 01:10:37;;;;;;;1.52;0.32;;;19.80;59.40;;;;;;5128804;27;20039;-72
2022/06/12 01:13:11;;;;;;;2.15;0.60;;;19.80;59.40;;;;;;5128738;28;20047;-72
2022/06/12 01:15:41;;;;;;;1.38;0.40;;;19.80;59.40;;;;;;5128632;28;20051;-71
2022/06/12 01:18:11;;;;;;;1.73;0.43;;;19.80;59.40;;;;;;5130093;27;20046;-71
2022/06/12 01:20:46;;;;;;;1.23;0.40;;;19.80;59.40;;;;;;5128596;28;20118;-70
2022/06/12 01:26:28;;;;;;;2.47;0.32;;;19.80;59.40;;;;;;5130171;27;20043;-74
2022/06/12 01:29:15;;;;;;;1.60;0.50;;;19.70;59.40;;;;;;5163564;27;20055;-71
2022/06/12 01:32:06;;;;;;;1.52;0.47;;;19.70;59.40;;;;;;5128878;28;20050;-72
2022/06/12 01:37:51;;;;;;;1.20;0.40;;;19.70;59.40;;;;;;5130298;27;20386;-71
2022/06/12 01:45:59;;;;;;;1.42;0.40;;;19.70;59.40;;;;;;5130290;27;20383;-70
2022/06/12 01:52:04;;;;;;;3.85;0.50;;;19.60;59.40;;;;;;5130252;27;20415;-70
2022/06/12 01:54:47;;;;;;;1.98;0.38;;;19.60;59.40;;;;;;5146072;27;20122;-71
2022/06/12 01:57:19;;;;;;;2.00;0.40;;;19.60;59.40;;;;;;5129201;28;20035;-71
2022/06/12 02:02:33;;;;;;;1.77;0.30;;;19.60;59.40;;;;;;5153242;27;1157176;-70
2022/06/12 02:05:08;;;;;;;1.83;0.40;;;19.60;59.50;;;;;;5152997;27;20272;-71
2022/06/12 02:07:38;;;;;;;1.25;0.40;;;19.60;59.40;;;;;;5171784;27;20035;-71
2022/06/12 02:13:24;;;;;;;1.60;0.40;;;19.60;59.40;;;;;;5130328;27;20403;-72
2022/06/12 02:15:48;;;;;;;1.65;0.63;;;19.50;59.40;;;;;;5128061;27;20514;-70
2022/06/12 02:21:05;;;;;;;1.85;0.40;;;19.60;59.50;;;;;;5089454;28;20409;-70
2022/06/12 02:23:41;;;;;;;1.73;0.47;;;19.50;59.40;;;;;;5088127;28;20036;-71
2022/06/12 02:26:12;;;;;;;1.65;0.40;;;19.50;59.40;;;;;;5088221;28;20048;-68
2022/06/12 02:28:44;;;;;;;1.42;0.32;;;19.50;59.40;;;;;;5088318;28;20033;-70
2022/06/12 02:31:17;;;;;;;1.30;0.40;;;19.50;59.30;;;;;;5088209;28;20142;-70
2022/06/12 02:33:48;;;;;;;1.60;0.52;;;19.50;59.30;;;;;;5088017;28;20044;-72
2022/06/12 02:36:20;;;;;;;1.27;0.50;;;19.50;59.30;;;;;;5087853;28;20036;-71
2022/06/12 02:38:57;;;;;;;1.00;0.30;;;19.50;60.10;;;;;;5087865;28;20041;-71
2022/06/12 02:41:31;;;;;;;1.90;0.52;;;19.50;59.30;;;;;;5087680;28;20450;-72
2022/06/12 02:44:02;;;;;;;1.92;0.50;;;19.50;59.30;;;;;;5087711;28;20044;-71
2022/06/12 02:49:09;;;;;;;2.67;0.30;;;19.40;59.30;;;;;;5130343;27;20921;-70
2022/06/12 02:51:43;;;;;;;2.65;0.32;;;19.40;59.30;;;;;;5128980;28;20513;-70
2022/06/12 02:54:27;;;;;;;2.42;0.40;;;19.40;59.20;;;;;;5128854;28;20043;-71
2022/06/12 02:57:34;;;;;;;2.72;0.43;;;19.40;59.20;;;;;;5130194;27;20061;-70
2022/06/12 03:03:10;;;;;;;1.15;0.40;;;19.40;59.20;;;;;;5048730;27;4073702;-69
2022/06/12 03:05:39;;;;;;;1.30;0.35;;;19.40;59.20;;;;;;5153004;27;20046;-69
2022/06/12 03:08:15;;;;;;;2.35;0.40;;;19.40;59.20;;;;;;5153319;27;20114;-71
2022/06/12 03:10:47;;;;;;;1.80;0.50;;;19.40;59.10;;;;;;5136626;27;20046;-69
2022/06/12 03:13:15;;;;;;;1.98;0.40;;;19.40;59.10;;;;;;5153252;27;20042;-69
2022/06/12 03:16:10;;;;;;;1.63;0.30;;;19.30;59.00;;;;;;5171641;27;20038;-70
2022/06/12 03:18:39;;;;;;;2.30;0.25;;;19.40;59.10;;;;;;5153144;27;20074;-68
2022/06/12 03:21:45;;;;;;;1.15;0.30;;;19.30;59.00;;;;;;5135768;27;20042;-68
2022/06/12 03:24:43;;;;;;;3.50;0.60;;;19.30;59.00;;;;;;5152845;27;20041;-71
2022/06/12 03:35:48;;;;;;;2.40;0.20;;;19.30;58.90;;;;;;5111311;27;1165091;-70
2022/06/12 03:49:46;;;;;;;2.13;0.45;;;19.30;58.80;;;;;;5109954;27;20441;-71
2022/06/12 04:00:42;;;;;;;2.50;0.40;;;19.30;58.80;;;;;;5130350;27;20362;-70
2022/06/12 04:03:16;;;;;;;1.55;0.30;;;19.30;58.80;;;;;;5130328;27;20479;-70
2022/06/12 04:05:48;;;;;;;1.58;0.52;;;19.30;58.80;;;;;;5128889;28;20074;-70
2022/06/12 04:08:19;;;;;;;2.75;0.55;;;19.30;58.70;;;;;;5128933;28;20043;-71
2022/06/12 04:10:46;;;;;;;2.22;0.50;;;19.30;58.80;;;;;;5129060;28;20043;-70
2022/06/12 04:13:14;;;;;;;2.75;0.45;;;19.30;58.80;;;;;;5129096;28;20043;-70
2022/06/12 04:15:45;;;;;;;1.63;0.43;;;19.20;58.70;;;;;;5129004;28;20086;-71
2022/06/12 04:18:10;;;;;;;3.33;0.35;;;19.30;58.80;;;;;;5128581;28;20047;-70
2022/06/12 04:20:59;;;;;;;2.75;0.60;;;19.20;58.70;;;;;;5128572;28;20043;-71
2022/06/12 04:28:56;;;;;;;2.10;0.40;;;19.30;58.70;;;;;;5089951;28;20360;-70
2022/06/12 04:31:22;;;;;;;1.98;0.75;;;19.30;58.60;;;;;;5088261;28;20487;-71
2022/06/12 04:34:12;;;;;;;1.90;0.30;;;19.20;58.50;;;;;;5088096;28;20044;-71
2022/06/12 04:36:39;;;;;;;1.35;0.47;;;19.30;58.60;;;;;;5088197;28;20048;-70
2022/06/12 04:39:06;;;;;;;2.05;0.40;;;19.30;58.60;;;;;;5088192;28;20063;-70
2022/06/12 04:41:35;;;;;;;1.50;0.90;;;19.30;58.60;;;;;;5088089;28;20075;-70
2022/06/12 04:44:03;;;;;;;2.13;0.40;;;19.30;58.60;;;;;;5087885;28;20119;-71
2022/06/12 04:46:29;;;;;;;1.98;0.40;;;19.20;58.60;;;;;;5087969;28;20538;-70
2022/06/12 04:48:56;;;;;;;1.83;0.40;;;19.20;58.60;;;;;;5089687;28;20032;-68
2022/06/12 04:51:23;;;;;;;1.88;0.30;;;19.20;58.50;;;;;;5088040;28;20089;-69
2022/06/12 04:53:49;;;;;;;1.67;0.55;;;19.30;58.70;;;;;;5087912;28;20032;-70
2022/06/12 04:56:17;;;;;;;2.30;0.47;;;19.20;58.50;;;;;;5086945;28;20086;-70
2022/06/12 04:58:43;;;;;;;1.58;0.55;;;19.30;58.60;;;;;;5087589;28;20104;-69
2022/06/12 05:01:10;;;;;;;2.70;0.30;;;19.30;58.60;;;;;;5087793;28;20044;-70
2022/06/12 05:03:35;;;;;;;1.77;0.30;;;19.20;58.50;;;;;;5088828;28;20044;-71
2022/06/12 05:06:02;;;;;;;1.55;0.30;;;19.30;58.60;;;;;;5087633;28;20369;-71
2022/06/12 05:08:28;;;;;;;1.13;0.30;;;19.20;58.50;;;;;;5087301;28;20498;-69
2022/06/12 05:10:54;;;;;;;1.60;0.40;;;19.30;58.60;;;;;;5088611;28;20067;-69
2022/06/12 05:13:20;;;;;;;2.08;0.50;;;19.20;58.60;;;;;;5087389;28;20118;-70
2022/06/12 05:15:46;;;;;;;2.10;0.50;;;19.30;58.60;;;;;;5088522;28;20379;-70
2022/06/12 05:18:15;;;;;;;2.50;0.55;;;19.20;58.60;;;;;;5087220;28;20504;-71
2022/06/12 05:20:45;;;;;;;2.47;0.40;;;19.20;58.50;;;;;;5070546;28;20044;-69
2022/06/12 05:23:12;;;;;;;1.08;0.30;;;19.20;58.60;;;;;;5087305;28;20388;-69
2022/06/12 05:25:38;;;;;;;2.63;0.40;;;19.30;58.60;;;;;;5087091;28;20051;-69
2022/06/12 05:28:05;;;;;;;2.00;0.30;;;19.30;58.60;;;;;;5086692;28;20049;-69
2022/06/12 05:30:34;;;;;;;2.58;0.30;;;19.20;58.60;;;;;;5087440;28;20557;-70
2022/06/12 05:33:01;;;;;;;2.78;0.55;;;19.30;58.60;;;;;;5086964;28;20059;-68
2022/06/12 05:35:29;;;;;;;1.70;0.30;;;19.30;58.70;;;;;;5087270;28;20040;-70
2022/06/12 05:37:58;;;;;;;1.85;0.40;;;19.20;58.60;;;;;;5086289;28;20040;-71
2022/06/12 05:40:31;;;;;;;2.97;0.40;;;19.30;58.70;;;;;;5074466;28;20122;-70
2022/06/12 05:42:56;;;;;;;1.50;0.40;;;19.20;58.70;;;;;;5074499;28;20036;-69
2022/06/12 05:45:24;;;;;;;2.22;0.60;;;19.20;58.70;;;;;;5073310;28;20033;-71
2022/06/12 05:47:56;;;;;;;1.52;0.43;;;19.30;58.70;;;;;;5073132;28;20548;-70
2022/06/12 05:50:24;;;;;;;1.52;0.30;;;19.30;58.70;;;;;;5074427;28;20106;-69
2022/06/12 05:52:50;;;;;;;1.90;0.30;;;19.30;58.70;;;;;;5074352;28;20098;-68
2022/06/12 05:55:16;;;;;;;1.23;0.28;;;19.30;58.70;;;;;;5073144;28;20488;-71
2022/06/12 05:57:42;;;;;;;3.50;0.50;;;19.30;58.80;;;;;;5075171;28;20523;-69
2022/06/12 06:00:15;;;;;;;2.67;0.85;;;19.30;58.80;;;;;;5073568;28;20055;-71
2022/06/12 06:02:42;;;;;;;2.63;0.50;;;19.30;58.80;;;;;;5074339;28;20119;-68
2022/06/12 06:05:08;;;;;;;2.22;0.40;;;19.30;58.80;;;;;;5072801;28;20044;-68
2022/06/12 06:07:35;;;;;;;2.30;0.32;;;19.30;58.80;;;;;;5073228;28;20047;-72
2022/06/12 06:10:07;;;;;;;2.28;0.22;;;19.30;58.80;;;;;;5073675;28;20036;-71
2022/06/12 06:12:33;;;;;;;1.63;0.43;;;19.30;58.80;;;;;;5074008;28;20056;-69
2022/06/12 06:14:59;;;;;;;1.92;0.50;;;19.40;58.90;;;;;;5072217;28;20036;-69
2022/06/12 06:17:25;;;;;;;2.05;0.40;;;19.40;58.90;;;;;;5073829;28;20463;-69
2022/06/12 06:19:51;;;;;;;1.48;0.28;;;19.40;58.90;;;;;;5073706;28;20557;-69
2022/06/12 06:22:18;;;;;;;2.65;0.50;;;19.40;58.90;;;;;;5074012;28;20032;-70
2022/06/12 06:24:45;;;;;;;1.38;0.40;;;19.40;58.90;;;;;;5072735;28;20041;-69
2022/06/12 06:27:13;;;;;;;1.75;0.40;;;19.40;58.90;;;;;;5072309;28;20241;-71
2022/06/12 06:29:39;;;;;;;2.72;0.77;;;19.40;58.80;;;;;;5073639;28;20052;-68
2022/06/12 06:32:07;;;;;;;1.33;0.40;;;19.50;58.90;;;;;;5072403;28;20400;-69
2022/06/12 06:34:36;;;;;;;2.22;0.65;;;19.40;58.90;;;;;;5072498;28;20056;-69
2022/06/12 06:37:03;;;;;;;3.10;0.40;;;19.50;58.90;;;;;;5072577;28;20044;-69
2022/06/12 06:39:32;;;;;;;2.47;0.40;;;19.50;59.40;;;;;;5073605;28;20033;-70
2022/06/12 06:41:57;;;;;;;2.75;0.43;;;19.50;58.90;;;;;;5072450;28;20040;-71
2022/06/12 06:47:09;;;;;;;1.35;0.40;;;19.50;58.90;;;;;;5072005;28;20044;-69
2022/06/12 06:49:38;;;;;;;2.92;0.30;;;19.50;59.70;;;;;;5071685;28;20079;-69
2022/06/12 06:52:04;;;;;;;2.40;0.35;;;19.50;59.00;;;;;;5071674;28;20036;-71
2022/06/12 06:54:30;;;;;;;3.03;0.30;;;19.50;58.90;;;;;;5073264;28;20044;-70
2022/06/12 06:56:56;;;;;;;3.88;0.65;;;19.50;59.00;;;;;;5071849;28;20385;-69
2022/06/12 06:59:22;;;;;;;2.20;0.45;;;19.50;59.00;;;;;;5071752;28;20044;-71
2022/06/12 07:01:47;;;;;;;4.10;0.50;;;19.60;59.00;;;;;;5071681;28;20040;-69
2022/06/12 07:04:14;;;;;;;3.65;0.82;;;19.60;59.00;;;;;;5071677;28;20093;-69
2022/06/12 07:06:41;;;;;;;4.65;1.50;;;19.60;59.00;;;;;;5072833;28;20033;-70
2022/06/12 07:09:07;;;;;;;4.10;0.82;;;19.60;58.90;;;;;;5071890;28;20028;-69
2022/06/12 07:11:34;;;;;;;1.70;0.50;;;19.60;59.00;;;;;;5071502;28;20457;-70
2022/06/12 07:14:00;;;;;;;3.42;0.50;;;19.60;59.00;;;;;;5071602;28;20090;-69
2022/06/12 07:16:27;;;;;;;4.93;0.80;;;19.60;59.00;;;;;;5071547;28;20040;-69
2022/06/12 07:18:53;;;;;;;2.60;0.60;;;19.60;59.00;;;;;;5071492;28;20055;-70
2022/06/12 07:21:19;;;;;;;4.93;0.70;;;19.60;59.00;;;;;;5072629;28;20048;-71
2022/06/12 07:23:45;;;;;;;4.13;0.50;;;19.70;59.00;;;;;;5072639;28;20074;-70
2022/06/12 07:26:20;;;;;;;4.30;0.60;;;19.70;59.00;;;;;;5072629;28;20037;-69
2022/06/12 07:28:45;;;;;;;2.88;0.80;;;19.70;59.10;;;;;;5070955;28;20450;-71
2022/06/12 07:31:11;;;;;;;2.28;0.80;;;19.70;59.10;;;;;;5071090;28;20056;-70
2022/06/12 07:33:37;;;;;;;4.22;0.70;;;19.70;59.10;;;;;;5072437;28;20036;-70
2022/06/12 07:36:09;;;;;;;3.60;0.50;;;19.70;59.10;;;;;;5072758;28;20388;-70
2022/06/12 07:38:36;;;;;;;5.53;1.30;;;19.70;59.10;;;;;;5071402;28;20174;-70
2022/06/12 07:41:03;;;;;;;2.03;0.40;;;19.80;59.10;;;;;;5054363;28;20044;-71
2022/06/12 07:43:34;;;;;;;1.95;0.57;;;19.70;59.10;;;;;;5071053;28;20183;-69
2022/06/12 07:46:01;;;;;;;1.95;0.50;;;19.70;59.10;;;;;;5072130;28;20037;-70
2022/06/12 07:48:26;;;;;;;3.63;0.73;;;19.70;59.10;;;;;;5070885;28;20534;-70
2022/06/12 07:50:53;;;;;;;3.08;0.70;;;19.80;59.10;;;;;;5072419;28;20036;-70
2022/06/12 07:53:21;;;;;;;2.50;0.60;;;19.80;59.10;;;;;;5072122;28;20056;-70
2022/06/12 07:55:50;;;;;;;2.50;0.68;;;19.90;59.10;;;;;;5071204;28;20061;-70
2022/06/12 07:58:17;;;;;;;4.65;0.80;;;19.90;59.00;;;;;;5070779;28;20044;-69
2022/06/12 08:00:43;;;;;;;2.45;0.40;;;19.90;58.90;;;;;;5070827;28;20048;-70
2022/06/12 08:03:09;;;;;;;2.65;0.60;;;20.00;58.80;;;;;;5071799;28;20036;-70
2022/06/12 08:05:37;;;;;;;2.72;0.43;;;20.00;58.70;;;;;;5070727;28;20032;-70
2022/06/12 08:08:03;;;;;;;2.55;0.82;;;20.00;59.40;;;;;;5072018;28;20059;-70
2022/06/12 08:10:29;;;;;;;3.05;0.55;;;20.10;58.60;;;;;;5070975;28;20043;-70
2022/06/12 08:12:56;;;;;;;3.70;0.85;;;20.10;58.60;;;;;;5071960;28;20068;-71
2022/06/12 08:15:27;;;;;;;3.10;0.73;;;20.10;58.50;;;;;;5071896;28;20039;-69
2022/06/12 08:17:56;;;;;;;2.00;0.35;;;20.10;58.40;;;;;;5071826;28;20079;-69
2022/06/12 08:20:26;;;;;;;3.85;0.40;;;20.20;58.30;;;;;;5070562;28;20476;-70
2022/06/12 08:22:56;;;;;;;4.40;0.50;;;20.20;58.30;;;;;;5070776;28;20086;-70
2022/06/12 08:25:22;;;;;;;3.53;0.40;;;20.30;58.40;;;;;;5070813;28;20302;-71
2022/06/12 08:27:48;;;;;;;4.65;0.55;;;20.30;58.30;;;;;;5071416;28;20082;-70
2022/06/12 08:30:14;;;;;;;1.42;0.60;;;20.30;58.00;;;;;;5071663;28;20123;-71
2022/06/12 08:32:45;;;;;;;2.40;0.32;;;20.40;57.80;;;;;;5071704;28;20519;-70
2022/06/12 08:35:16;;;;;;;3.10;0.75;;;20.40;57.60;;;;;;5070746;28;20045;-70
2022/06/12 08:37:43;;;;;;;4.07;0.88;;;20.50;57.50;;;;;;5070376;28;20047;-71
2022/06/12 08:40:17;;;;;;;1.42;0.40;;;20.60;57.40;;;;;;5070422;28;20128;-71
2022/06/12 08:42:53;;;;;;;3.47;0.45;;;20.60;57.20;;;;;;5070523;28;20072;-71
2022/06/12 08:45:23;;;;;;;2.35;0.60;;;20.70;57.00;;;;;;5071634;28;20044;-70
2022/06/12 08:47:55;;;;;;;2.67;0.50;;;20.80;56.80;;;;;;5071803;28;20438;-70
2022/06/12 08:59:07;;;;;;;2.25;0.30;;;21.00;56.20;;;;;;5130303;27;20378;-70
2022/06/12 09:01:41;;;;;;;4.47;0.60;;;21.30;55.80;;;;;;5128969;28;20035;-71
2022/06/12 09:04:09;;;;;;;2.78;0.95;;;21.50;55.30;;;;;;5128850;28;20051;-70
2022/06/12 09:07:05;;;;;;;3.35;0.60;;;21.60;54.90;;;;;;5129036;28;20039;-70
2022/06/12 09:09:40;;;;;;;2.78;0.40;;;21.80;54.50;;;;;;5128838;28;20483;-71
2022/06/12 09:12:30;;;;;;;2.50;0.60;;;21.90;54.10;;;;;;5130048;27;20391;-70
2022/06/12 09:21:10;;;;;;;3.72;0.70;;;22.20;53.80;;;;;;5130312;27;20132;-69
2022/06/12 09:29:38;;;;;;;1.90;0.32;;;22.20;53.30;;;;;;5130327;27;20917;-71
2022/06/12 09:32:16;;;;;;;2.00;0.30;;;22.30;53.20;;;;;;5128804;27;20047;-70
2022/06/12 09:38:23;;;;;;;2.47;0.50;;;22.00;53.80;;;;;;5130312;27;20177;-69
2022/06/12 09:49:41;;;;;;;5.95;0.60;;;21.90;54.10;;;;;;5152603;27;1173321;-70
2022/06/12 09:52:45;;;;;;;3.00;0.70;;;22.00;54.00;;;;;;5152757;27;20054;-70
2022/06/12 10:03:42;;;;;;;2.47;0.95;;;22.10;53.80;;;;;;5109778;27;20412;-70
2022/06/12 10:06:21;;;;;;;3.50;0.77;;;22.10;53.70;;;;;;5108365;28;20480;-70
2022/06/12 10:08:53;;;;;;;2.50;0.40;;;22.00;53.80;;;;;;5107937;28;20228;-71
2022/06/12 10:11:25;;;;;;;3.45;0.60;;;21.90;53.90;;;;;;5108195;28;20047;-70
2022/06/12 10:16:39;;;;;;;2.85;0.30;;;21.80;54.90;;;;;;5152532;27;1167864;-68
2022/06/12 10:21:55;;;;;;;1.63;0.47;;;21.70;54.80;;;;;;5130171;27;20358;-71
2022/06/12 10:24:21;;;;;;;1.95;0.50;;;21.70;54.70;;;;;;5128999;27;20155;-72
2022/06/12 10:26:59;;;;;;;3.03;0.60;;;21.70;54.60;;;;;;5128908;28;20063;-71
2022/06/12 10:29:26;;;;;;;4.07;0.63;;;21.80;54.60;;;;;;5128890;28;20046;-69
2022/06/12 10:31:59;;;;;;;3.75;0.60;;;21.80;54.60;;;;;;5128810;28;20043;-69
2022/06/12 10:34:30;;;;;;;5.10;0.60;;;21.80;54.50;;;;;;5128763;27;20487;-71
2022/06/12 10:37:09;;;;;;;2.20;0.50;;;21.80;54.50;;;;;;5128753;28;20096;-71
2022/06/12 10:39:40;;;;;;;2.80;0.60;;;21.80;54.60;;;;;;5128844;28;20039;-70
2022/06/12 10:42:24;;;;;;;3.80;0.80;;;21.70;54.50;;;;;;5129898;27;20046;-70
2022/06/12 10:44:55;;;;;;;3.33;0.50;;;21.80;54.60;;;;;;5128592;28;20043;-70
2022/06/12 10:47:26;;;;;;;2.30;0.57;;;21.70;54.60;;;;;;5127725;27;20071;-71
2022/06/12 10:56:09;;;;;;;2.28;0.55;;;21.70;54.70;;;;;;5153048;27;1161880;-70
2022/06/12 10:58:53;;;;;;;3.78;0.40;;;21.70;54.70;;;;;;5152875;27;20053;-70
2022/06/12 11:01:49;;;;;;;1.60;0.77;;;21.70;54.80;;;;;;5153022;27;20046;-70
2022/06/12 11:10:19;;;;;;;2.90;0.40;;;21.60;54.80;;;;;;5089820;27;20356;-71
2022/06/12 11:40:43;;;;;;;2.67;0.38;;;21.60;54.80;;;;;;5192800;27;20374;-70
2022/06/12 11:57:31;;;;;;;2.00;0.47;;;21.50;54.60;;;;;;5130284;27;20387;-70
2022/06/12 12:03:19;;;;;;;2.50;0.47;;;21.60;54.60;;;;;;5130382;27;20362;-72
2022/06/12 12:11:23;;;;;;;1.30;0.38;;;21.60;54.50;;;;;;5109932;27;20916;-71
2022/06/12 12:13:54;;;;;;;1.90;0.50;;;21.60;54.10;;;;;;5108763;28;20422;-71
2022/06/12 12:19:06;;;;;;;2.30;0.65;;;21.60;54.20;;;;;;5130316;27;20407;-72
2022/06/12 12:21:42;;;;;;;1.92;0.50;;;21.60;54.10;;;;;;5146392;27;20054;-71
2022/06/12 12:24:14;;;;;;;2.35;0.40;;;21.60;54.10;;;;;;5129251;28;20479;-72
2022/06/12 12:26:42;;;;;;;1.55;0.40;;;21.60;54.10;;;;;;5128821;27;20457;-72
2022/06/12 12:29:14;;;;;;;2.05;0.30;;;21.60;54.00;;;;;;5128834;28;20486;-70
2022/06/12 12:31:45;;;;;;;2.92;0.40;;;21.60;54.00;;;;;;5128698;27;20043;-72
2022/06/12 12:34:11;;;;;;;;;;;21.60;54.00;;;;;;5129554;28;20499;-70
2022/06/12 12:48:04;;;;;;;2.67;0.30;;;21.60;53.70;;;;;;5153079;27;1155838;-72
2022/06/12 12:50:41;;;;;;;2.47;0.32;;;21.60;53.60;;;;;;5153290;27;20057;-71
2022/06/12 12:53:07;;;;;;;1.65;0.50;;;21.60;53.60;;;;;;5153287;27;20038;-70
2022/06/12 12:55:38;;;;;;;2.80;0.28;;;21.60;53.50;;;;;;5153276;27;20058;-70
2022/06/12 12:58:24;;;;;;;1.52;0.30;;;21.70;53.50;;;;;;5152932;27;20074;-71
2022/06/12 13:01:01;;;;;;;1.73;0.65;;;21.60;53.50;;;;;;5153223;27;20438;-70
2022/06/12 13:03:32;;;;;;;2.50;0.70;;;21.60;53.40;;;;;;5152871;27;20041;-72
2022/06/12 13:09:07;;;;;;;1.70;0.30;;;21.70;53.40;;;;;;5151117;27;20285;-71
2022/06/12 13:17:24;;;;;;;1.60;0.52;;;21.60;53.20;;;;;;5130406;27;20403;-71
2022/06/12 13:23:20;;;;;;;1.48;0.38;;;21.70;53.20;;;;;;5089259;27;20363;-72
2022/06/12 13:25:50;;;;;;;2.35;0.40;;;21.70;53.10;;;;;;5087970;28;20079;-70
2022/06/12 13:28:27;;;;;;;2.53;0.40;;;21.70;53.00;;;;;;5087889;28;20101;-71
2022/06/12 13:30:54;;;;;;;2.03;0.32;;;21.70;53.00;;;;;;5088137;28;20115;-71
2022/06/12 13:36:10;;;;;;;1.98;0.30;;;21.70;52.90;;;;;;5109835;27;20736;-72
2022/06/12 13:38:49;;;;;;;1.00;0.50;;;21.70;52.80;;;;;;5108401;28;20059;-71
2022/06/12 13:50:11;;;;;;;2.13;0.43;;;21.70;52.80;;;;;;5130111;27;20410;-70
2022/06/12 13:58:24;;;;;;;1.63;0.43;;;21.80;52.60;;;;;;5130623;27;20403;-70
2022/06/12 14:00:53;;;;;;;2.30;0.40;;;21.80;52.40;;;;;;5129044;28;20039;-71
2022/06/12 14:03:24;;;;;;;1.23;0.28;;;21.80;52.30;;;;;;5129155;28;20116;-72
2022/06/12 14:05:57;;;;;;;1.73;0.50;;;21.80;52.40;;;;;;5128825;28;20089;-70
2022/06/12 14:08:24;;;;;;;2.00;0.40;;;21.80;52.30;;;;;;5128789;28;20061;-71
2022/06/12 14:10:51;;;;;;;1.48;0.40;;;21.80;52.30;;;;;;5128809;28;20043;-72
2022/06/12 14:13:43;;;;;;;1.30;0.20;;;21.80;52.40;;;;;;5128864;28;20528;-72
2022/06/12 14:19:00;;;;;;;1.10;0.35;;;21.80;52.30;;;;;;5129991;27;20848;-72
2022/06/12 14:21:30;;;;;;;2.30;0.30;;;21.80;52.20;;;;;;5129041;28;20043;-71
2022/06/12 14:23:58;;;;;;;;;;;21.80;52.20;;;;;;5129544;28;20043;-72
2022/06/12 14:37:50;;;;;;;3.10;0.70;;;21.80;52.20;;;;;;5131224;27;20387;-71
2022/06/12 14:43:22;;;;;;;2.65;0.30;;;21.90;52.10;;;;;;5130079;27;20897;-71
2022/06/12 14:45:52;;;;;;;1.50;0.30;;;21.90;52.10;;;;;;5128170;28;20051;-71
2022/06/12 14:48:22;;;;;;;2.40;0.50;;;21.90;52.00;;;;;;5130263;27;20092;-71
2022/06/12 14:50:47;;;;;;;1.23;0.50;;;21.90;52.10;;;;;;5130264;27;20387;-70
2022/06/12 14:53:14;;;;;;;1.67;0.45;;;21.90;52.10;;;;;;5130464;27;20043;-70
2022/06/12 14:55:41;;;;;;;1.80;0.25;;;21.90;52.10;;;;;;5128985;28;20039;-71
2022/06/12 14:58:17;;;;;;;2.00;0.50;;;21.90;52.10;;;;;;5128874;28;20053;-71
2022/06/12 15:00:43;;;;;;;1.02;0.30;;;21.90;52.10;;;;;;5128735;27;20047;-71
2022/06/12 15:03:13;;;;;;;1.88;0.45;;;21.90;52.20;;;;;;5129897;27;20077;-72
2022/06/12 15:05:39;;;;;;;3.42;0.40;;;21.80;52.20;;;;;;5128482;27;20096;-72
2022/06/12 15:08:05;;;;;;;1.77;0.30;;;21.80;52.30;;;;;;5128840;27;20039;-72
2022/06/12 15:10:31;;;;;;;1.60;0.30;;;21.90;52.30;;;;;;5128436;27;20402;-72
2022/06/12 15:13:00;;;;;;;2.20;0.43;;;21.90;52.30;;;;;;5128716;28;20071;-70
2022/06/12 15:15:26;;;;;;;0.90;0.40;;;21.90;52.20;;;;;;5129638;27;20439;-72
2022/06/12 15:17:51;;;;;;;3.53;0.40;;;21.90;52.20;;;;;;5129438;27;20122;-71
2022/06/12 15:20:18;;;;;;;1.65;0.30;;;22.00;52.30;;;;;;5128921;28;20043;-71
2022/06/12 15:22:47;;;;;;;1.42;0.28;;;21.90;52.20;;;;;;5129225;28;20040;-70
2022/06/12 15:31:03;;;;;;;2.30;0.40;;;22.00;52.30;;;;;;5127929;28;20059;-69
2022/06/12 15:33:28;;;;;;;1.35;0.30;;;21.90;52.20;;;;;;5128377;28;20045;-71
2022/06/12 15:35:56;;;;;;;0.90;0.20;;;21.90;52.20;;;;;;5128346;28;20485;-71
2022/06/12 15:38:23;;;;;;;1.15;0.50;;;21.90;52.40;;;;;;5127961;28;20043;-71
2022/06/12 15:40:52;;;;;;;1.25;0.40;;;21.90;52.40;;;;;;5127820;28;20039;-72
2022/06/12 15:43:18;;;;;;;1.55;0.30;;;21.80;52.50;;;;;;5129281;28;20647;-72
2022/06/12 15:45:44;;;;;;;3.50;0.43;;;21.80;52.50;;;;;;5129311;27;20057;-72
2022/06/12 15:48:10;;;;;;;2.13;0.60;;;21.90;52.40;;;;;;5129122;28;20475;-70
2022/06/12 15:50:37;;;;;;;2.45;0.40;;;21.90;52.40;;;;;;5128090;28;20049;-71
2022/06/12 15:53:07;;;;;;;2.10;0.47;;;21.90;52.40;;;;;;5121813;27;20031;-71
2022/06/12 15:55:33;;;;;;;2.78;0.40;;;21.90;52.40;;;;;;5114259;28;20035;-72
2022/06/12 15:57:58;;;;;;;2.35;0.52;;;21.90;52.40;;;;;;5113850;28;20445;-72
2022/06/12 16:00:25;;;;;;;2.65;0.30;;;21.90;52.40;;;;;;5113903;28;20042;-71
2022/06/12 16:02:54;;;;;;;1.73;0.40;;;21.90;52.40;;;;;;5115022;28;20032;-70
2022/06/12 16:05:22;;;;;;;1.88;0.50;;;22.00;52.50;;;;;;5113791;28;20332;-71
2022/06/12 16:07:48;;;;;;;1.48;0.30;;;21.90;52.50;;;;;;5113633;28;20035;-71
2022/06/12 16:10:14;;;;;;;3.80;0.40;;;21.90;52.60;;;;;;5113701;28;20044;-71
2022/06/12 16:12:41;;;;;;;1.20;0.25;;;21.80;52.60;;;;;;5115028;28;20032;-72
2022/06/12 16:15:13;;;;;;;2.03;0.50;;;21.80;52.70;;;;;;5113912;28;20043;-72
2022/06/12 16:17:41;;;;;;;2.20;0.40;;;21.80;52.80;;;;;;5113422;28;20051;-72
2022/06/12 16:20:09;;;;;;;1.35;0.40;;;21.80;52.90;;;;;;5113554;28;20046;-72
2022/06/12 16:22:34;;;;;;;1.15;0.30;;;21.80;52.80;;;;;;5114593;28;20368;-72
2022/06/12 16:25:03;;;;;;;2.90;0.70;;;21.90;52.90;;;;;;5115005;28;20121;-68
2022/06/12 16:27:29;;;;;;;2.92;0.60;;;21.80;52.80;;;;;;5114805;28;20031;-72
2022/06/12 16:29:55;;;;;;;3.15;0.68;;;21.80;52.80;;;;;;5113511;28;20040;-73
2022/06/12 16:32:20;;;;;;;2.33;0.63;;;21.80;52.80;;;;;;5113516;28;20505;-72
2022/06/12 16:34:49;;;;;;;3.28;1.00;;;21.80;52.80;;;;;;5113358;28;20501;-72
2022/06/12 16:37:18;;;;;;;2.55;0.50;;;21.80;52.70;;;;;;5114331;28;20039;-72
2022/06/12 16:39:44;;;;;;;2.25;0.40;;;21.80;52.70;;;;;;5113266;28;20050;-72
2022/06/12 16:42:13;;;;;;;5.35;0.85;;;21.80;52.70;;;;;;5095740;28;20051;-72
2022/06/12 16:44:39;;;;;;;0.95;0.30;;;21.80;52.70;;;;;;5114157;28;20039;-71
2022/06/12 16:47:05;;;;;;;2.03;0.50;;;21.80;52.80;;;;;;5112940;28;20036;-71
2022/06/12 16:49:31;;;;;;;3.08;0.47;;;21.80;52.90;;;;;;5112943;28;20092;-72
2022/06/12 16:54:42;;;;;;;2.03;0.40;;;21.80;52.90;;;;;;5130254;27;20386;-71
2022/06/12 16:57:10;;;;;;;2.45;0.52;;;21.80;52.90;;;;;;5128949;27;20055;-70
2022/06/12 16:59:36;;;;;;;1.58;0.50;;;21.80;52.90;;;;;;5130210;27;20043;-71
2022/06/12 17:02:02;;;;;;;1.95;0.60;;;21.80;52.90;;;;;;5128920;28;20112;-71
2022/06/12 17:04:29;;;;;;;1.77;0.40;;;21.80;52.90;;;;;;5129030;28;20111;-71
2022/06/12 17:06:55;;;;;;;1.35;0.50;;;21.80;52.90;;;;;;5129052;28;20054;-73
2022/06/12 17:09:21;;;;;;;1.33;0.43;;;21.80;52.90;;;;;;5129000;27;20044;-72
2022/06/12 17:11:47;;;;;;;3.05;0.63;;;21.80;53.00;;;;;;5128719;28;20043;-71
2022/06/12 17:14:13;;;;;;;0.88;0.40;;;21.80;53.10;;;;;;5128646;28;20036;-70